Weather at Karawala Airport

Public forecast

Using degrees Celsius for public forecast. Weather courtesy of forecast.io.

Closest aviation weather report (METAR) to Karawala Airport

Closest report is Bluefields Airport, 55.3 nm (102.3 km) SSW.

2023/03/25 16:00 (retrieved 21 minutes ago)

MNBL 251600Z 12006KT 9999 BKN017 SCT070 26/24 Q1015 REDZ

Closest aviation forecast (TAF) to Karawala Airport

Closest forecast is Gustavo Rojas Pinilla International Airport, 111.2 nm (205.9 km) E.

2023/03/25 12:00 (retrieved 4 hours ago)

TAF SKSP 251030Z 2512/2612 07012KT 9999 FEW017 TX31/2519Z TN25/2610Z